Time;durP1;ratioP1;P1;durP2;ratioP2;P2;SDS_P1;SDS_P2;PMS_P1;PMS_P2;Temp;Humidity;BMP_temperature;BMP_pressure;BME280_temperature;BME280_humidity;BME280_pressure;Samples;Min_cycle;Max_cycle;Signal;HPM_P1;HPM_P2
2022/10/08 00:00:50;;;;;;;0.35;0.28;;;13.90;99.90;;;;;;5074257;28;19915;-45
2022/10/08 00:03:17;;;;;;;2.67;0.73;;;13.90;99.90;;;;;;5091699;28;20028;-42
2022/10/08 00:05:43;;;;;;;0.73;0.63;;;14.00;99.90;;;;;;5086490;28;20392;-42
2022/10/08 00:08:09;;;;;;;0.40;0.40;;;13.90;99.90;;;;;;5084874;28;20028;-41
2022/10/08 00:10:36;;;;;;;0.70;0.50;;;13.90;99.90;;;;;;5092446;28;20560;-41
2022/10/08 00:13:03;;;;;;;3.80;0.68;;;13.90;99.90;;;;;;5093002;28;20383;-40
2022/10/08 00:15:29;;;;;;;1.65;0.50;;;13.90;99.90;;;;;;5083095;28;20031;-46
2022/10/08 00:17:55;;;;;;;3.47;1.08;;;13.90;99.90;;;;;;5084162;28;20049;-36
2022/10/08 00:20:21;;;;;;;2.88;1.08;;;13.90;99.90;;;;;;5082562;28;20531;-36
2022/10/08 00:22:48;;;;;;;2.63;0.98;;;13.90;99.90;;;;;;5071428;28;20036;-34
2022/10/08 00:25:13;;;;;;;2.75;0.57;;;13.90;99.90;;;;;;5086726;28;20028;-35
2022/10/08 00:27:39;;;;;;;6.72;0.77;;;13.90;99.90;;;;;;5078793;28;20533;-42
2022/10/08 00:30:05;;;;;;;4.28;1.00;;;13.90;99.90;;;;;;5087994;28;20024;-41
2022/10/08 00:32:31;;;;;;;1.40;1.30;;;13.90;99.90;;;;;;5077918;28;20044;-41
2022/10/08 00:34:57;;;;;;;1.25;0.88;;;13.90;99.90;;;;;;5073835;28;20031;-42
2022/10/08 00:37:24;;;;;;;1.48;0.40;;;13.90;99.90;;;;;;5071899;28;20369;-42
2022/10/08 00:39:50;;;;;;;0.88;0.65;;;13.90;99.90;;;;;;5082380;28;20503;-41
2022/10/08 00:42:15;;;;;;;0.50;0.50;;;13.80;99.90;;;;;;5081302;28;20025;-41
2022/10/08 00:44:54;;;;;;;2.03;0.80;;;13.90;99.90;;;;;;5081524;28;20514;-40
2022/10/08 00:47:32;;;;;;;4.13;1.00;;;13.90;99.90;;;;;;5095856;28;20028;-58
2022/10/08 00:50:28;;;;;;;7.25;0.80;;;13.80;99.90;;;;;;5088699;28;20044;-39
2022/10/08 00:53:04;;;;;;;3.60;0.90;;;13.80;99.90;;;;;;5080302;28;20020;-48
2022/10/08 00:55:31;;;;;;;4.75;0.70;;;13.90;99.90;;;;;;5077531;28;20086;-36
2022/10/08 00:58:01;;;;;;;2.50;0.70;;;13.80;99.90;;;;;;5076804;28;20024;-40
2022/10/08 01:00:28;;;;;;;4.28;0.88;;;13.80;99.90;;;;;;5084362;28;20024;-43
2022/10/08 01:02:54;;;;;;;2.67;0.65;;;13.80;99.90;;;;;;5092461;28;20434;-44
2022/10/08 01:05:38;;;;;;;2.33;1.10;;;13.80;99.90;;;;;;5075385;28;20028;-42
2022/10/08 01:08:34;;;;;;;3.28;0.57;;;13.80;99.90;;;;;;5095294;28;20480;-40
2022/10/08 01:11:35;;;;;;;4.55;1.13;;;13.80;99.90;;;;;;5083069;28;20095;-42
2022/10/08 01:14:09;;;;;;;1.33;0.75;;;13.80;99.90;;;;;;5081043;28;20063;-43
2022/10/08 01:16:57;;;;;;;4.93;0.75;;;13.80;99.90;;;;;;5082457;28;20029;-44
2022/10/08 01:19:43;;;;;;;2.15;0.70;;;13.90;99.90;;;;;;5075246;28;20043;-42
2022/10/08 01:23:13;;;;;;;3.25;0.90;;;13.90;99.90;;;;;;5087057;28;20077;-41
2022/10/08 01:25:54;;;;;;;2.67;0.80;;;13.80;99.90;;;;;;5031413;28;20042;-40
2022/10/08 01:28:32;;;;;;;7.40;1.77;;;13.80;99.90;;;;;;5032789;28;20033;-42
2022/10/08 01:31:22;;;;;;;2.88;1.10;;;13.80;99.90;;;;;;5062258;28;20547;-40
2022/10/08 01:33:59;;;;;;;5.15;1.45;;;13.80;99.90;;;;;;5083086;28;20052;-42
2022/10/08 01:36:27;;;;;;;5.68;1.25;;;13.80;99.90;;;;;;5085403;28;20545;-43
2022/10/08 01:38:57;;;;;;;2.47;1.10;;;13.70;99.90;;;;;;5093084;28;20024;-38
2022/10/08 01:41:25;;;;;;;3.40;1.35;;;13.80;99.90;;;;;;5081501;28;20034;-34
2022/10/08 01:44:17;;;;;;;4.95;1.50;;;13.80;99.90;;;;;;5087177;28;20028;-37
2022/10/08 01:46:45;;;;;;;4.53;1.70;;;13.80;99.90;;;;;;5075761;28;20033;-40
2022/10/08 01:49:17;;;;;;;4.25;1.58;;;13.70;99.90;;;;;;5074665;28;20032;-34
2022/10/08 01:52:09;;;;;;;5.45;1.73;;;13.80;99.90;;;;;;5083445;28;20023;-38
2022/10/08 01:54:36;;;;;;;7.25;1.92;;;13.70;99.90;;;;;;5084419;28;20492;-39
2022/10/08 01:57:04;;;;;;;4.90;2.05;;;13.80;99.90;;;;;;5076469;28;20473;-32
2022/10/08 01:59:38;;;;;;;5.93;2.13;;;13.70;99.90;;;;;;5077184;28;20050;-35
2022/10/08 02:02:23;;;;;;;5.22;1.67;;;13.70;99.90;;;;;;5085384;28;20017;-34
2022/10/08 02:04:53;;;;;;;12.70;2.20;;;13.70;99.90;;;;;;5077355;28;20103;-42
2022/10/08 02:07:41;;;;;;;4.30;2.00;;;13.80;99.90;;;;;;5086384;28;20024;-35
2022/10/08 02:10:20;;;;;;;5.30;2.10;;;13.70;99.90;;;;;;5085078;28;20070;-50
2022/10/08 02:12:45;;;;;;;8.60;1.58;;;13.60;99.90;;;;;;5087852;28;20031;-47
2022/10/08 02:15:18;;;;;;;7.38;1.92;;;13.60;99.90;;;;;;5081875;28;20024;-41
2022/10/08 02:18:05;;;;;;;2.67;1.30;;;13.60;99.90;;;;;;5077021;28;20418;-41
2022/10/08 02:20:35;;;;;;;5.03;2.10;;;13.60;99.90;;;;;;5074366;28;20032;-49
2022/10/08 02:23:01;;;;;;;6.53;1.65;;;13.60;99.90;;;;;;5082366;28;20082;-44
2022/10/08 02:25:37;;;;;;;3.63;1.50;;;13.60;99.90;;;;;;5084427;28;20028;-42
2022/10/08 02:28:20;;;;;;;2.03;1.15;;;13.60;99.90;;;;;;5080202;28;20330;-45
2022/10/08 02:31:12;;;;;;;5.78;1.00;;;13.60;99.90;;;;;;5088925;28;20051;-56
2022/10/08 02:34:12;;;;;;;1.77;1.17;;;13.60;99.90;;;;;;5091362;28;20048;-35
2022/10/08 02:36:41;;;;;;;1.48;1.05;;;13.50;99.90;;;;;;5047701;28;20134;-33
2022/10/08 02:39:10;;;;;;;4.03;1.45;;;13.50;99.90;;;;;;5082099;28;20028;-35
2022/10/08 02:41:48;;;;;;;6.57;1.15;;;13.50;99.90;;;;;;5074324;28;20035;-33
2022/10/08 02:44:31;;;;;;;5.10;1.15;;;13.50;99.90;;;;;;5082441;28;20035;-35
2022/10/08 02:47:00;;;;;;;2.53;1.23;;;13.50;99.90;;;;;;5079781;28;20055;-41
2022/10/08 02:49:30;;;;;;;2.53;1.45;;;13.40;99.90;;;;;;5078053;28;20417;-38
2022/10/08 02:52:00;;;;;;;2.22;1.10;;;13.40;99.90;;;;;;5070577;28;20495;-38
2022/10/08 02:54:28;;;;;;;3.75;1.80;;;13.40;99.90;;;;;;5086186;28;20064;-36
2022/10/08 02:57:00;;;;;;;4.07;1.50;;;13.40;99.90;;;;;;5092100;28;20081;-43
2022/10/08 02:59:26;;;;;;;5.43;1.52;;;13.40;99.90;;;;;;5076096;28;20129;-41
2022/10/08 03:01:58;;;;;;;5.15;1.13;;;13.30;99.90;;;;;;5063482;28;20020;-43
2022/10/08 03:04:37;;;;;;;5.70;1.50;;;13.30;99.90;;;;;;5084028;28;20478;-43
2022/10/08 03:07:04;;;;;;;4.47;1.05;;;13.30;99.90;;;;;;5086537;28;20032;-36
2022/10/08 03:09:45;;;;;;;3.75;1.65;;;13.30;99.90;;;;;;5082296;28;20029;-58
2022/10/08 03:12:11;;;;;;;6.18;1.52;;;13.30;99.90;;;;;;5078057;28;20063;-33
2022/10/08 03:14:40;;;;;;;3.47;1.83;;;13.30;99.90;;;;;;5089967;28;20064;-36
2022/10/08 03:17:08;;;;;;;5.25;1.52;;;13.20;99.90;;;;;;5086327;28;20028;-36
2022/10/08 03:19:34;;;;;;;5.85;1.75;;;13.20;99.90;;;;;;5085439;28;20035;-37
2022/10/08 03:22:01;;;;;;;4.63;1.33;;;13.20;99.90;;;;;;5087900;28;20028;-37
2022/10/08 03:24:26;;;;;;;5.47;1.27;;;13.20;99.90;;;;;;5090804;28;20028;-36
2022/10/08 03:26:52;;;;;;;11.18;1.90;;;13.20;99.90;;;;;;5082520;28;20028;-37
2022/10/08 03:29:18;;;;;;;3.95;1.42;;;13.20;99.90;;;;;;5077172;28;20024;-37
2022/10/08 03:31:46;;;;;;;4.75;1.58;;;13.20;99.90;;;;;;5074156;28;20032;-43
2022/10/08 03:34:11;;;;;;;;;;;13.20;99.90;;;;;;5076233;28;20484;-34
2022/10/08 03:36:37;;;;;;;4.05;1.92;;;13.30;99.90;;;;;;5074594;28;19915;-41
2022/10/08 03:39:02;;;;;;;5.53;1.40;;;13.20;99.90;;;;;;5077847;28;20505;-39
2022/10/08 03:41:30;;;;;;;7.90;1.73;;;13.20;99.90;;;;;;5084946;28;20043;-41
2022/10/08 03:43:56;;;;;;;5.95;2.15;;;13.20;99.90;;;;;;5083714;28;20024;-41
2022/10/08 03:46:22;;;;;;;3.70;1.08;;;13.10;99.90;;;;;;5059183;28;20132;-41
2022/10/08 03:48:48;;;;;;;5.15;1.85;;;13.10;99.90;;;;;;5088274;28;20103;-41
2022/10/08 03:51:14;;;;;;;3.17;1.50;;;13.10;99.90;;;;;;5084442;28;20035;-38
2022/10/08 03:53:41;;;;;;;3.83;1.40;;;13.10;99.90;;;;;;5091350;28;20099;-41
2022/10/08 03:56:12;;;;;;;7.18;1.27;;;13.00;99.90;;;;;;5092133;28;20024;-39
2022/10/08 03:58:37;;;;;;;2.78;1.17;;;13.00;99.90;;;;;;5092322;28;20533;-46
2022/10/08 04:01:06;;;;;;;2.50;1.08;;;13.00;99.90;;;;;;5081472;28;20020;-35
2022/10/08 04:03:32;;;;;;;9.45;1.67;;;12.90;99.90;;;;;;5089848;28;20507;-38
2022/10/08 04:05:59;;;;;;;4.32;1.45;;;12.90;99.90;;;;;;5088329;28;20476;-40
2022/10/08 04:08:25;;;;;;;7.28;1.38;;;12.90;99.90;;;;;;5086150;28;20020;-41
2022/10/08 04:10:51;;;;;;;7.57;1.95;;;12.90;99.90;;;;;;5086483;28;20484;-41
2022/10/08 04:13:17;;;;;;;9.25;1.58;;;12.90;99.90;;;;;;5079402;28;20040;-40
2022/10/08 04:15:43;;;;;;;4.82;1.20;;;12.90;99.90;;;;;;5090191;28;20388;-40
2022/10/08 04:18:12;;;;;;;4.80;1.20;;;12.90;99.90;;;;;;5061328;28;20511;-41
2022/10/08 04:20:39;;;;;;;1.42;0.90;;;12.80;99.90;;;;;;5095307;28;20381;-40
2022/10/08 04:23:06;;;;;;;3.25;1.77;;;12.80;99.90;;;;;;5088346;28;20436;-40
2022/10/08 04:25:31;;;;;;;4.13;1.20;;;12.80;99.90;;;;;;5095255;28;20511;-36
2022/10/08 04:27:57;;;;;;;4.68;1.20;;;12.80;99.90;;;;;;5092490;28;20017;-42
2022/10/08 04:30:23;;;;;;;6.72;1.83;;;12.80;99.90;;;;;;5082036;28;20024;-41
2022/10/08 04:32:49;;;;;;;4.15;1.77;;;12.80;99.90;;;;;;5084055;28;20089;-41
2022/10/08 04:35:16;;;;;;;5.10;1.55;;;12.80;99.90;;;;;;5095799;28;20020;-41
2022/10/08 04:37:41;;;;;;;6.45;1.65;;;12.70;99.90;;;;;;5086678;28;20024;-34
2022/10/08 04:40:08;;;;;;;4.55;2.00;;;12.70;99.90;;;;;;5082823;28;20070;-37
2022/10/08 04:42:33;;;;;;;6.03;1.85;;;12.70;99.90;;;;;;5087228;28;20427;-45
2022/10/08 04:44:59;;;;;;;6.68;1.80;;;12.70;99.90;;;;;;5096353;28;20078;-36
2022/10/08 04:47:24;;;;;;;15.57;1.75;;;12.70;99.90;;;;;;5085667;28;20036;-37
2022/10/08 04:49:50;;;;;;;9.85;1.77;;;12.70;99.90;;;;;;5096163;28;20036;-32
2022/10/08 04:52:17;;;;;;;3.40;1.33;;;12.60;99.90;;;;;;5091749;28;20028;-31
2022/10/08 04:54:43;;;;;;;2.10;1.25;;;12.60;99.90;;;;;;5083892;28;20380;-40
2022/10/08 04:57:09;;;;;;;7.90;1.33;;;12.60;99.90;;;;;;5086178;28;20027;-35
2022/10/08 04:59:34;;;;;;;5.32;2.05;;;12.60;99.90;;;;;;5095159;28;20455;-40
2022/10/08 05:02:00;;;;;;;5.45;1.40;;;12.60;99.90;;;;;;5066807;28;20024;-40
2022/10/08 05:04:26;;;;;;;10.43;1.52;;;12.50;99.90;;;;;;5093842;28;20169;-40
2022/10/08 05:06:51;;;;;;;3.47;1.50;;;12.50;99.90;;;;;;5094161;28;20171;-41
2022/10/08 05:09:17;;;;;;;9.88;2.08;;;12.50;99.90;;;;;;5092954;28;20031;-39
2022/10/08 05:11:42;;;;;;;6.35;2.88;;;12.40;99.90;;;;;;5091250;28;20491;-41
2022/10/08 05:14:08;;;;;;;6.50;1.73;;;12.40;99.90;;;;;;5081605;28;20070;-43
2022/10/08 05:16:35;;;;;;;10.43;1.77;;;12.40;99.90;;;;;;5074826;28;20024;-40
2022/10/08 05:19:02;;;;;;;6.63;1.65;;;12.40;99.90;;;;;;5090074;28;20024;-40
2022/10/08 05:21:29;;;;;;;5.38;1.23;;;12.40;99.90;;;;;;5085623;28;20016;-40
2022/10/08 05:23:59;;;;;;;2.63;1.30;;;12.40;99.90;;;;;;5084822;28;20103;-43
2022/10/08 05:26:28;;;;;;;7.55;1.30;;;12.40;99.90;;;;;;5090984;28;20108;-42
2022/10/08 05:28:58;;;;;;;4.95;1.23;;;12.30;99.90;;;;;;5092210;28;20498;-41
2022/10/08 05:31:25;;;;;;;2.42;1.30;;;12.30;99.90;;;;;;5084441;28;20511;-46
2022/10/08 05:33:52;;;;;;;3.80;1.10;;;12.30;99.90;;;;;;5088335;28;20158;-40
2022/10/08 05:36:27;;;;;;;6.80;1.15;;;12.30;99.90;;;;;;5076760;28;20530;-39
2022/10/08 05:38:55;;;;;;;3.67;1.27;;;12.30;99.90;;;;;;5089551;28;20024;-36
2022/10/08 05:41:26;;;;;;;4.93;1.58;;;12.30;99.90;;;;;;5080857;28;20046;-41
2022/10/08 05:43:56;;;;;;;11.82;1.45;;;12.20;99.90;;;;;;5084249;28;20032;-43
2022/10/08 05:46:26;;;;;;;3.40;1.20;;;12.20;99.90;;;;;;5092993;28;20035;-40
2022/10/08 05:48:56;;;;;;;7.82;1.45;;;12.20;99.90;;;;;;5090912;28;20492;-40
2022/10/08 05:51:22;;;;;;;4.38;1.50;;;12.20;99.90;;;;;;5083537;28;20055;-40
2022/10/08 05:53:50;;;;;;;4.70;1.25;;;12.20;99.90;;;;;;5093982;28;20433;-40
2022/10/08 05:56:18;;;;;;;4.23;1.33;;;12.20;99.90;;;;;;5060864;28;20511;-41
2022/10/08 05:58:44;;;;;;;5.68;1.60;;;12.10;99.90;;;;;;5086641;28;20025;-41
2022/10/08 06:01:19;;;;;;;3.88;0.90;;;12.20;99.90;;;;;;5086354;28;20028;-45
2022/10/08 06:03:50;;;;;;;5.10;0.95;;;12.20;99.90;;;;;;5090020;28;20556;-42
2022/10/08 06:06:15;;;;;;;6.75;1.25;;;12.10;99.90;;;;;;5088759;28;20506;-42
2022/10/08 06:08:41;;;;;;;4.50;1.08;;;12.10;99.90;;;;;;5093878;28;20028;-43
2022/10/08 06:11:07;;;;;;;9.20;0.93;;;12.10;99.90;;;;;;5084690;28;20494;-40
2022/10/08 06:13:34;;;;;;;7.43;1.40;;;12.10;99.90;;;;;;5084686;28;20063;-37
2022/10/08 06:16:05;;;;;;;2.72;1.33;;;12.10;99.90;;;;;;5089370;28;20496;-34
2022/10/08 06:18:33;;;;;;;4.63;1.08;;;12.10;99.90;;;;;;5089781;28;20153;-37
2022/10/08 06:21:06;;;;;;;;;;;12.10;99.90;;;;;;5077374;28;20107;-33
2022/10/08 06:23:32;;;;;;;6.78;1.00;;;12.10;99.90;;;;;;5076449;28;20328;-37
2022/10/08 06:26:06;;;;;;;5.30;1.50;;;12.10;99.90;;;;;;5086919;28;20473;-32
2022/10/08 06:28:34;;;;;;;2.28;0.98;;;12.00;99.90;;;;;;5087025;28;20089;-35
2022/10/08 06:30:59;;;;;;;2.17;1.10;;;12.10;99.90;;;;;;5081486;28;20491;-41
2022/10/08 06:33:26;;;;;;;8.52;1.52;;;12.10;99.90;;;;;;5088479;28;20053;-35
2022/10/08 06:35:51;;;;;;;6.35;1.10;;;12.10;99.90;;;;;;5074727;28;20055;-36
2022/10/08 06:38:18;;;;;;;7.70;0.95;;;12.10;99.90;;;;;;5077712;28;20091;-33
2022/10/08 06:40:43;;;;;;;4.97;1.45;;;12.10;99.90;;;;;;5081249;28;20028;-40
2022/10/08 06:43:16;;;;;;;1.63;0.80;;;12.20;99.90;;;;;;5082791;28;20453;-37
2022/10/08 06:45:43;;;;;;;7.28;1.52;;;12.20;99.90;;;;;;5072436;28;20554;-37
2022/10/08 06:48:10;;;;;;;2.65;1.10;;;12.20;99.90;;;;;;5078540;28;20103;-34
2022/10/08 06:50:36;;;;;;;15.73;1.15;;;12.20;99.90;;;;;;5094097;28;20032;-34
2022/10/08 06:53:03;;;;;;;12.00;1.42;;;12.20;99.90;;;;;;5088900;28;20028;-34
2022/10/08 06:55:31;;;;;;;9.63;1.45;;;12.20;99.90;;;;;;5084612;28;20111;-33
2022/10/08 06:57:57;;;;;;;4.38;0.95;;;12.20;99.90;;;;;;5087106;28;20539;-34
2022/10/08 07:00:22;;;;;;;2.63;1.15;;;12.20;99.90;;;;;;5083819;28;20112;-37
2022/10/08 07:02:48;;;;;;;7.30;1.05;;;12.30;99.90;;;;;;5075770;28;20472;-32
2022/10/08 07:05:14;;;;;;;7.43;0.75;;;12.30;99.90;;;;;;5086850;28;20559;-39
2022/10/08 07:07:39;;;;;;;5.18;1.67;;;12.40;99.90;;;;;;5089922;28;20106;-31
2022/10/08 07:10:05;;;;;;;4.15;0.82;;;12.40;99.90;;;;;;5075844;28;20103;-32
2022/10/08 07:12:31;;;;;;;3.60;1.10;;;12.50;99.90;;;;;;5091259;28;20028;-41
2022/10/08 07:14:58;;;;;;;5.20;1.00;;;12.50;99.90;;;;;;5083075;28;20021;-38
2022/10/08 07:17:25;;;;;;;2.90;0.93;;;12.50;99.90;;;;;;5092466;28;20031;-59
2022/10/08 07:19:51;;;;;;;4.80;1.25;;;12.60;99.90;;;;;;5086154;28;20028;-33
2022/10/08 07:22:17;;;;;;;1.55;0.98;;;12.70;99.90;;;;;;5084858;28;20016;-34
2022/10/08 07:24:42;;;;;;;2.63;1.13;;;12.70;99.90;;;;;;5081794;28;20050;-39
2022/10/08 07:27:08;;;;;;;5.65;1.42;;;12.70;99.90;;;;;;5090622;28;20078;-46
2022/10/08 07:29:34;;;;;;;5.15;0.90;;;12.80;99.90;;;;;;5086721;28;20455;-41
2022/10/08 07:31:59;;;;;;;6.90;1.13;;;12.80;99.90;;;;;;5081403;28;20443;-41
2022/10/08 07:34:25;;;;;;;2.33;1.20;;;12.90;99.90;;;;;;5087875;28;20027;-42
2022/10/08 07:36:51;;;;;;;6.18;1.23;;;13.00;99.90;;;;;;5062140;28;20043;-47
2022/10/08 07:39:18;;;;;;;14.32;2.05;;;13.10;99.90;;;;;;5090094;28;20477;-38
2022/10/08 07:41:48;;;;;;;8.70;1.23;;;13.10;99.90;;;;;;5061891;28;20115;-34
2022/10/08 07:44:15;;;;;;;6.65;1.13;;;13.10;99.90;;;;;;5092361;28;20472;-36
2022/10/08 07:46:43;;;;;;;6.80;1.38;;;13.20;99.90;;;;;;5076995;28;20385;-32
2022/10/08 07:49:09;;;;;;;4.65;0.80;;;13.20;99.90;;;;;;5088645;28;20032;-44
2022/10/08 07:51:34;;;;;;;2.55;0.98;;;13.20;99.90;;;;;;5081907;28;20035;-44
2022/10/08 07:54:02;;;;;;;9.77;1.55;;;13.30;99.90;;;;;;5088570;28;20039;-41
2022/10/08 07:56:28;;;;;;;2.15;0.88;;;13.40;99.90;;;;;;5089009;28;20505;-41
2022/10/08 07:58:54;;;;;;;17.23;1.95;;;13.50;99.90;;;;;;5078920;28;20021;-43
2022/10/08 08:01:22;;;;;;;7.63;1.02;;;13.50;99.90;;;;;;5082838;28;20060;-53
2022/10/08 08:03:58;;;;;;;14.05;1.83;;;13.60;99.90;;;;;;5085603;28;20472;-41
2022/10/08 08:06:24;;;;;;;11.57;1.52;;;13.60;99.90;;;;;;5089046;28;20484;-39
2022/10/08 08:08:50;;;;;;;8.25;1.33;;;13.70;99.90;;;;;;5088695;28;20038;-38
2022/10/08 08:11:18;;;;;;;8.32;1.30;;;13.80;99.90;;;;;;5077715;28;20120;-36
2022/10/08 08:13:44;;;;;;;6.88;1.38;;;13.90;99.90;;;;;;5081358;28;20561;-34
2022/10/08 08:16:14;;;;;;;13.13;1.90;;;13.90;99.90;;;;;;5091713;28;20024;-31
2022/10/08 08:18:43;;;;;;;5.43;1.67;;;14.00;99.90;;;;;;5089695;28;20465;-32
2022/10/08 08:21:14;;;;;;;8.98;0.85;;;14.10;99.90;;;;;;5081149;28;20032;-34
2022/10/08 08:23:42;;;;;;;5.20;1.25;;;14.20;99.90;;;;;;5078252;28;20032;-33
2022/10/08 08:26:12;;;;;;;;;;;14.10;99.90;;;;;;5076473;28;20077;-37
2022/10/08 08:28:38;;;;;;;7.50;0.90;;;14.20;99.90;;;;;;5091102;28;19915;-35
2022/10/08 08:31:08;;;;;;;5.88;1.25;;;14.30;99.90;;;;;;5076788;28;20035;-41
2022/10/08 08:33:33;;;;;;;6.07;1.33;;;14.40;99.90;;;;;;5078559;28;20511;-38
2022/10/08 08:35:59;;;;;;;8.40;1.15;;;14.50;99.90;;;;;;5090717;28;20075;-41
2022/10/08 08:38:25;;;;;;;6.25;1.38;;;14.50;99.90;;;;;;5090871;28;20048;-40
2022/10/08 08:40:54;;;;;;;1.08;0.57;;;14.60;99.90;;;;;;5083668;28;20024;-41
2022/10/08 08:43:19;;;;;;;6.85;1.00;;;14.70;99.90;;;;;;5074812;28;20497;-41
2022/10/08 08:45:47;;;;;;;8.15;0.90;;;14.70;99.90;;;;;;5076107;28;20028;-36
2022/10/08 08:48:22;;;;;;;12.30;1.27;;;14.70;99.90;;;;;;5066588;28;20043;-40
2022/10/08 08:50:50;;;;;;;4.13;0.93;;;14.80;99.90;;;;;;5086811;28;20358;-34
2022/10/08 08:53:16;;;;;;;3.40;0.80;;;14.80;99.90;;;;;;5061884;28;20040;-32
2022/10/08 08:55:45;;;;;;;2.33;1.00;;;15.00;99.90;;;;;;5092151;28;20039;-32
2022/10/08 08:58:35;;;;;;;8.13;0.93;;;15.00;99.90;;;;;;5085162;28;20107;-55
2022/10/08 09:01:42;;;;;;;3.92;0.88;;;15.00;99.90;;;;;;5090979;28;20028;-38
2022/10/08 09:04:25;;;;;;;5.15;0.80;;;15.00;99.90;;;;;;5071917;28;20036;-37
2022/10/08 09:06:52;;;;;;;0.98;0.68;;;15.00;99.90;;;;;;5086142;28;20074;-35
2022/10/08 09:09:29;;;;;;;2.42;0.77;;;14.90;99.90;;;;;;5085237;28;20755;-34
2022/10/08 09:11:56;;;;;;;2.17;0.70;;;14.90;99.90;;;;;;5068656;28;20016;-37
2022/10/08 09:14:39;;;;;;;5.95;1.60;;;14.90;99.90;;;;;;5085964;28;20024;-32
2022/10/08 09:17:35;;;;;;;2.63;0.93;;;15.00;99.90;;;;;;5094771;28;20051;-32
2022/10/08 09:20:02;;;;;;;6.60;0.83;;;15.10;99.90;;;;;;5087167;28;20019;-32
2022/10/08 09:22:36;;;;;;;13.27;1.83;;;15.30;99.90;;;;;;5088958;28;20266;-34
2022/10/08 09:25:11;;;;;;;4.38;0.80;;;15.50;99.90;;;;;;5079672;28;20074;-41
2022/10/08 09:27:57;;;;;;;7.80;1.05;;;15.40;99.90;;;;;;5088321;28;20028;-36
2022/10/08 09:30:27;;;;;;;5.20;0.80;;;15.30;99.90;;;;;;5085160;28;20032;-40
2022/10/08 09:32:55;;;;;;;6.63;0.77;;;15.20;99.90;;;;;;5089725;28;20040;-41
2022/10/08 09:35:22;;;;;;;3.50;1.10;;;14.80;99.90;;;;;;5083463;28;20039;-42
2022/10/08 09:37:50;;;;;;;5.22;1.40;;;14.40;99.90;;;;;;5093687;28;20028;-38
2022/10/08 09:40:17;;;;;;;;;;;14.10;99.90;;;;;;5093534;28;20025;-43
2022/10/08 09:42:43;;;;;;;8.13;1.42;;;13.90;99.90;;;;;;5074999;28;19945;-35
2022/10/08 09:45:38;;;;;;;9.85;1.73;;;13.80;99.90;;;;;;5089194;28;20051;-38
2022/10/08 09:48:18;;;;;;;8.70;1.02;;;13.80;99.90;;;;;;5082009;28;20174;-40
2022/10/08 09:51:12;;;;;;;7.00;1.13;;;13.80;99.90;;;;;;5090926;28;20069;-41
2022/10/08 09:53:46;;;;;;;4.75;1.50;;;13.80;99.90;;;;;;5077313;28;20097;-41
2022/10/08 09:56:12;;;;;;;13.35;1.13;;;14.00;99.90;;;;;;5088942;28;20039;-41
2022/10/08 09:58:52;;;;;;;3.17;0.82;;;14.30;99.90;;;;;;5085832;28;20020;-43
2022/10/08 10:01:18;;;;;;;5.50;1.13;;;14.50;99.90;;;;;;5076458;28;20028;-43
2022/10/08 10:04:03;;;;;;;5.57;0.88;;;14.60;99.90;;;;;;5076464;28;20045;-39
2022/10/08 10:06:32;;;;;;;4.40;1.10;;;14.90;99.90;;;;;;5086890;28;20028;-44
2022/10/08 10:09:10;;;;;;;8.13;1.48;;;14.90;99.90;;;;;;5080953;28;20504;-43
2022/10/08 10:11:48;;;;;;;5.93;1.00;;;14.80;99.90;;;;;;5075294;28;20024;-39
2022/10/08 10:14:24;;;;;;;3.60;0.80;;;14.80;99.90;;;;;;5083286;28;20380;-42
2022/10/08 10:16:58;;;;;;;3.33;1.02;;;14.80;99.90;;;;;;5094533;28;20524;-40
2022/10/08 10:19:31;;;;;;;6.43;1.10;;;14.60;99.90;;;;;;5093628;28;20480;-40
2022/10/08 10:22:13;;;;;;;4.10;0.52;;;14.60;99.90;;;;;;5086683;28;20017;-40
2022/10/08 10:24:55;;;;;;;4.55;0.70;;;14.50;99.90;;;;;;5093594;28;20032;-39
2022/10/08 10:27:30;;;;;;;5.82;0.85;;;14.40;99.90;;;;;;5091518;28;20024;-43
2022/10/08 10:30:08;;;;;;;6.22;1.10;;;14.30;99.90;;;;;;5076734;28;20074;-41
2022/10/08 10:32:42;;;;;;;8.13;1.52;;;14.20;99.90;;;;;;5080899;28;20400;-39
2022/10/08 10:35:24;;;;;;;3.45;0.60;;;14.30;99.90;;;;;;5079741;28;20024;-40
2022/10/08 10:37:58;;;;;;;4.47;0.70;;;14.60;99.90;;;;;;5087590;28;20472;-44
2022/10/08 10:41:10;;;;;;;1.83;0.63;;;14.90;99.90;;;;;;5088142;28;20015;-40
2022/10/08 10:43:47;;;;;;;6.07;0.80;;;15.20;99.90;;;;;;5078844;28;20118;-40
2022/10/08 10:46:35;;;;;;;12.02;1.70;;;15.40;99.90;;;;;;5091387;28;20028;-43
2022/10/08 10:49:01;;;;;;;4.95;1.10;;;15.50;99.90;;;;;;5075736;28;20028;-40
2022/10/08 10:51:54;;;;;;;6.75;1.25;;;15.60;99.90;;;;;;5086510;28;20387;-39
2022/10/08 10:54:35;;;;;;;8.20;1.27;;;15.80;99.90;;;;;;5086239;28;20028;-53
2022/10/08 10:57:07;;;;;;;6.28;0.85;;;15.90;99.90;;;;;;5092105;28;20468;-35
2022/10/08 10:59:56;;;;;;;1.92;0.68;;;15.60;99.90;;;;;;5079832;28;20027;-41
2022/10/08 11:02:43;;;;;;;8.88;1.48;;;15.10;99.90;;;;;;5081614;28;20538;-40
2022/10/08 11:05:25;;;;;;;3.33;0.98;;;14.70;99.90;;;;;;5073424;28;20036;-42
2022/10/08 11:08:06;;;;;;;1.67;0.90;;;14.40;99.90;;;;;;5093172;28;20032;-40
2022/10/08 11:11:04;;;;;;;11.93;1.45;;;14.30;99.90;;;;;;5073543;28;20032;-42
2022/10/08 11:13:43;;;;;;;9.65;1.40;;;14.30;99.90;;;;;;5074288;28;20473;-38
2022/10/08 11:16:17;;;;;;;9.23;1.30;;;14.20;99.90;;;;;;5088906;28;20384;-30
2022/10/08 11:18:52;;;;;;;8.10;1.75;;;14.20;99.90;;;;;;5082759;28;20464;-35
2022/10/08 11:21:37;;;;;;;6.47;1.55;;;14.40;99.90;;;;;;5085730;28;20099;-41
2022/10/08 11:24:33;;;;;;;7.65;1.33;;;14.70;99.90;;;;;;5068757;28;20032;-39
2022/10/08 11:27:32;;;;;;;5.28;0.70;;;14.90;99.90;;;;;;5085549;28;20073;-40
2022/10/08 11:30:03;;;;;;;6.50;0.80;;;14.80;99.90;;;;;;5065641;28;20033;-41
2022/10/08 11:32:30;;;;;;;3.95;0.80;;;14.80;99.90;;;;;;5086190;28;20523;-40
2022/10/08 11:35:10;;;;;;;6.32;1.35;;;14.50;99.90;;;;;;5086748;28;20024;-39
2022/10/08 11:38:05;;;;;;;8.00;2.05;;;14.40;99.90;;;;;;5077712;28;20392;-41
2022/10/08 11:40:36;;;;;;;9.38;1.10;;;14.30;99.90;;;;;;5080702;28;20088;-34
2022/10/08 11:43:18;;;;;;;6.82;1.50;;;14.50;99.90;;;;;;5082794;28;20520;-40
2022/10/08 11:45:45;;;;;;;4.70;1.00;;;14.80;99.90;;;;;;5084882;28;20123;-42
2022/10/08 11:48:33;;;;;;;8.55;1.10;;;15.00;99.90;;;;;;5083679;28;20035;-40
2022/10/08 11:51:17;;;;;;;10.15;1.17;;;15.20;99.90;;;;;;5086141;28;20023;-41
2022/10/08 11:54:02;;;;;;;11.52;0.90;;;15.50;99.90;;;;;;5082228;28;20043;-41
2022/10/08 11:56:29;;;;;;;3.25;0.75;;;15.80;99.90;;;;;;5089551;28;20028;-41
2022/10/08 11:58:58;;;;;;;4.50;0.73;;;16.10;99.90;;;;;;5085341;28;20070;-41
2022/10/08 12:01:24;;;;;;;6.15;1.00;;;16.40;99.90;;;;;;5084392;28;20024;-38
2022/10/08 12:04:26;;;;;;;1.15;0.43;;;16.40;99.90;;;;;;5090922;28;20464;-44
2022/10/08 12:07:17;;;;;;;7.05;1.00;;;16.10;99.90;;;;;;5044024;28;20548;-41
2022/10/08 12:09:59;;;;;;;6.30;1.67;;;16.10;99.90;;;;;;5077786;28;20025;-34
2022/10/08 12:12:24;;;;;;;5.05;0.93;;;16.00;99.90;;;;;;5086063;28;20391;-33
2022/10/08 12:14:50;;;;;;;6.60;0.63;;;16.20;99.90;;;;;;5081419;28;20016;-33
2022/10/08 12:17:16;;;;;;;3.88;0.80;;;16.40;99.90;;;;;;5078781;28;20096;-40
2022/10/08 12:20:04;;;;;;;3.95;0.95;;;16.70;99.90;;;;;;5079291;28;20127;-41
2022/10/08 12:22:29;;;;;;;5.70;1.08;;;16.90;99.90;;;;;;5084133;28;20023;-41
2022/10/08 12:24:57;;;;;;;7.20;1.13;;;17.00;99.90;;;;;;5090687;28;20058;-41
2022/10/08 12:27:31;;;;;;;2.33;0.50;;;17.00;99.90;;;;;;5089968;28;20157;-41
2022/10/08 12:30:03;;;;;;;3.10;0.85;;;17.10;99.90;;;;;;5088723;28;20490;-42
2022/10/08 12:32:31;;;;;;;3.50;0.55;;;17.20;99.90;;;;;;5078141;28;20048;-43
2022/10/08 12:34:58;;;;;;;6.70;1.23;;;17.10;99.90;;;;;;5078500;28;20030;-46
2022/10/08 12:37:41;;;;;;;2.42;0.57;;;16.90;99.90;;;;;;5088302;28;20240;-49
2022/10/08 12:40:31;;;;;;;4.15;0.90;;;16.50;99.90;;;;;;5068545;28;20445;-47
2022/10/08 12:43:37;;;;;;;3.72;0.73;;;16.50;99.90;;;;;;5085713;28;20476;-41
2022/10/08 12:46:20;;;;;;;4.95;1.20;;;16.50;99.90;;;;;;5061016;28;20500;-39
2022/10/08 12:49:04;;;;;;;1.63;0.70;;;16.40;99.90;;;;;;5087242;28;20024;-32
2022/10/08 12:51:53;;;;;;;10.02;0.75;;;16.40;99.90;;;;;;5080318;28;20028;-36
2022/10/08 12:54:22;;;;;;;1.70;0.50;;;16.20;99.90;;;;;;5090142;28;20018;-34
2022/10/08 12:56:50;;;;;;;2.35;0.52;;;16.10;99.90;;;;;;5083538;28;21280;-34
2022/10/08 12:59:16;;;;;;;8.65;1.23;;;16.00;99.90;;;;;;5083869;28;20048;-34
2022/10/08 13:01:44;;;;;;;8.53;1.03;;;16.20;99.90;;;;;;5095841;28;20066;-32
2022/10/08 13:04:21;;;;;;;3.30;0.70;;;16.30;99.90;;;;;;5095820;28;20081;-32
2022/10/08 13:06:49;;;;;;;4.28;1.08;;;16.50;99.90;;;;;;5087591;28;20033;-31
2022/10/08 13:09:30;;;;;;;4.18;0.88;;;16.70;99.90;;;;;;5078952;28;20380;-34
2022/10/08 13:11:59;;;;;;;6.90;0.90;;;17.00;99.90;;;;;;5092178;28;20537;-32
2022/10/08 13:14:33;;;;;;;0.93;0.40;;;17.30;99.90;;;;;;5095588;28;20094;-37